Time;durP1;ratioP1;P1;durP2;ratioP2;P2;SDS_P1;SDS_P2;PMS_P1;PMS_P2;Temp;Humidity;BMP_temperature;BMP_pressure;BME280_temperature;BME280_humidity;BME280_pressure;Samples;Min_cycle;Max_cycle;Signal;HPM_P1;HPM_P2
2022/03/03 00:02:08;;;;;;;34.78;13.50;;;3.50;99.90;;;;;;5005166;28;20069;-73
2022/03/03 00:04:35;;;;;;;33.28;12.10;;;3.50;99.90;;;;;;4987292;28;20093;-72
2022/03/03 00:07:01;;;;;;;46.83;14.65;;;3.50;99.90;;;;;;4987275;28;20054;-73
2022/03/03 00:09:26;;;;;;;33.05;11.77;;;3.50;99.90;;;;;;5005326;28;20081;-73
2022/03/03 00:11:52;;;;;;;50.60;12.50;;;3.40;99.90;;;;;;5008715;28;20026;-71
2022/03/03 00:14:17;;;;;;;42.88;13.43;;;3.40;99.90;;;;;;5009094;28;20034;-72
2022/03/03 00:16:43;;;;;;;30.25;11.98;;;3.40;99.90;;;;;;4991513;28;20030;-72
2022/03/03 00:19:08;;;;;;;38.42;12.52;;;3.30;99.90;;;;;;5008584;28;20042;-71
2022/03/03 00:21:34;;;;;;;43.42;14.27;;;3.30;99.90;;;;;;5009166;28;20026;-72
2022/03/03 00:24:00;;;;;;;41.53;13.70;;;3.30;99.90;;;;;;5008889;28;20035;-72
2022/03/03 00:26:26;;;;;;;45.22;13.82;;;3.30;99.90;;;;;;4991390;28;20034;-72
2022/03/03 00:28:52;;;;;;;34.70;13.15;;;3.30;99.90;;;;;;5008871;28;20077;-73
2022/03/03 00:31:17;;;;;;;46.10;15.02;;;3.30;99.90;;;;;;5008823;28;20031;-72
2022/03/03 00:33:43;;;;;;;42.90;13.43;;;3.30;99.90;;;;;;4991020;28;20029;-71
2022/03/03 00:36:10;;;;;;;37.35;12.40;;;3.20;99.90;;;;;;5008673;28;20099;-71
2022/03/03 00:38:36;;;;;;;35.92;13.32;;;3.20;99.90;;;;;;5008487;28;20035;-71
2022/03/03 00:41:02;;;;;;;41.17;14.10;;;3.20;99.90;;;;;;5008525;28;20133;-70
2022/03/03 00:43:32;;;;;;;37.53;12.68;;;3.10;99.90;;;;;;5008783;28;20030;-72
2022/03/03 00:45:58;;;;;;;37.35;12.82;;;3.00;99.90;;;;;;5008861;28;20031;-72
2022/03/03 00:48:23;;;;;;;32.10;12.25;;;3.00;99.90;;;;;;5008240;28;20033;-71
2022/03/03 00:50:49;;;;;;;39.75;12.77;;;3.00;99.90;;;;;;5008852;28;20030;-70
2022/03/03 00:53:15;;;;;;;41.38;13.90;;;3.00;99.90;;;;;;4990549;28;20033;-72
2022/03/03 00:55:40;;;;;;;44.50;13.65;;;2.90;99.90;;;;;;5006987;28;20035;-72
2022/03/03 00:58:06;;;;;;;34.42;13.02;;;2.90;99.90;;;;;;4990476;28;20594;-71
2022/03/03 01:00:32;;;;;;;35.20;12.20;;;2.90;99.90;;;;;;5007629;28;20427;-73
2022/03/03 01:02:59;;;;;;;41.20;13.02;;;2.90;99.90;;;;;;5007843;28;20031;-71
2022/03/03 01:05:24;;;;;;;41.75;12.32;;;2.90;99.90;;;;;;4990264;28;20038;-70
2022/03/03 01:07:50;;;;;;;41.75;12.32;;;2.90;99.90;;;;;;5007330;28;20050;-72
2022/03/03 01:10:15;;;;;;;34.60;13.32;;;2.90;99.90;;;;;;5007357;28;20029;-72
2022/03/03 01:12:41;;;;;;;35.38;13.10;;;2.90;99.90;;;;;;5008006;28;20097;-72
2022/03/03 01:15:09;;;;;;;34.22;13.27;;;2.80;99.90;;;;;;5007759;28;20061;-72
2022/03/03 01:17:35;;;;;;;35.58;12.45;;;2.80;99.90;;;;;;5007678;28;20053;-71
2022/03/03 01:20:02;;;;;;;32.72;12.02;;;2.70;99.90;;;;;;5008262;28;20061;-70
2022/03/03 01:22:28;;;;;;;42.53;13.93;;;2.70;99.90;;;;;;5006417;28;20023;-72
2022/03/03 01:24:54;;;;;;;34.60;13.07;;;2.60;99.90;;;;;;5007714;28;20041;-71
2022/03/03 01:27:19;;;;;;;37.42;13.00;;;2.60;99.90;;;;;;4990268;28;20022;-71
2022/03/03 01:29:45;;;;;;;37.67;12.75;;;2.60;99.90;;;;;;4989763;28;20026;-72
2022/03/03 01:32:11;;;;;;;34.78;12.13;;;2.60;99.90;;;;;;5007674;28;20030;-72
2022/03/03 01:34:37;;;;;;;37.35;13.10;;;2.50;99.90;;;;;;5007832;28;20034;-72
2022/03/03 01:37:03;;;;;;;38.53;13.55;;;2.50;99.90;;;;;;5007554;28;20401;-73
2022/03/03 01:39:29;;;;;;;39.33;13.77;;;2.50;99.90;;;;;;5006942;28;20037;-72
2022/03/03 01:41:56;;;;;;;38.70;13.35;;;2.50;99.90;;;;;;5007450;28;20105;-72
2022/03/03 01:44:21;;;;;;;42.83;14.18;;;2.60;99.90;;;;;;5007444;28;20026;-71
2022/03/03 01:46:55;;;;;;;41.78;14.30;;;2.50;99.90;;;;;;5007519;28;20372;-72
2022/03/03 01:49:22;;;;;;;34.78;13.63;;;2.50;99.90;;;;;;5006966;28;20045;-73
2022/03/03 01:51:47;;;;;;;47.45;14.93;;;2.50;99.90;;;;;;5007258;28;20064;-72
2022/03/03 01:54:14;;;;;;;47.60;14.13;;;2.40;99.90;;;;;;5007327;28;20027;-72
2022/03/03 01:56:41;;;;;;;56.88;14.05;;;2.40;99.90;;;;;;5006346;28;20049;-71
2022/03/03 01:59:08;;;;;;;41.25;13.10;;;2.40;99.90;;;;;;5006641;28;20038;-72
2022/03/03 02:01:35;;;;;;;40.08;14.98;;;2.40;99.90;;;;;;5006359;28;20022;-71
2022/03/03 02:04:06;;;;;;;53.58;13.70;;;2.30;99.90;;;;;;4988737;28;20542;-71
2022/03/03 02:06:32;;;;;;;40.20;15.20;;;2.30;99.90;;;;;;5006780;28;20033;-73
2022/03/03 02:09:00;;;;;;;51.15;16.20;;;2.30;99.90;;;;;;5006697;28;20026;-72
2022/03/03 02:11:26;;;;;;;50.28;16.30;;;2.30;99.90;;;;;;5006871;28;20133;-72
2022/03/03 02:13:51;;;;;;;44.38;14.60;;;2.20;99.90;;;;;;5006994;28;20034;-73
2022/03/03 02:16:17;;;;;;;44.83;15.32;;;2.20;99.90;;;;;;5006887;28;20045;-70
2022/03/03 02:18:43;;;;;;;40.10;14.60;;;2.10;99.90;;;;;;5006310;28;20034;-71
2022/03/03 02:21:14;;;;;;;45.38;15.30;;;2.10;99.90;;;;;;4989322;28;20089;-71
2022/03/03 02:23:40;;;;;;;45.05;14.05;;;2.00;99.90;;;;;;5006575;28;20022;-72
2022/03/03 02:26:11;;;;;;;42.00;14.43;;;2.00;99.90;;;;;;5006469;28;20089;-71
2022/03/03 02:28:38;;;;;;;54.40;15.32;;;2.00;99.90;;;;;;5006719;28;20065;-73
2022/03/03 02:31:04;;;;;;;44.88;14.05;;;2.00;99.90;;;;;;5006688;28;20030;-71
2022/03/03 02:33:30;;;;;;;45.72;15.45;;;2.00;99.90;;;;;;5006272;28;20041;-71
2022/03/03 02:35:57;;;;;;;52.67;16.20;;;2.00;99.90;;;;;;4988986;28;20038;-70
2022/03/03 02:38:23;;;;;;;49.10;15.32;;;2.00;99.90;;;;;;5006445;28;20053;-72
2022/03/03 02:40:48;;;;;;;64.22;16.33;;;1.90;99.90;;;;;;5005146;28;20038;-70
2022/03/03 02:43:14;;;;;;;54.15;16.02;;;1.90;99.90;;;;;;5006408;28;20430;-71
2022/03/03 02:45:40;;;;;;;44.97;15.65;;;1.90;99.90;;;;;;5006435;28;20027;-71
2022/03/03 02:48:05;;;;;;;39.60;14.00;;;1.80;99.90;;;;;;5004599;28;20030;-71
2022/03/03 02:50:31;;;;;;;45.92;16.48;;;1.80;99.90;;;;;;5006401;28;20046;-70
2022/03/03 02:53:02;;;;;;;49.67;16.17;;;1.80;99.90;;;;;;5006173;28;20035;-72
2022/03/03 02:55:29;;;;;;;45.15;15.65;;;1.80;99.90;;;;;;5006281;28;20018;-71
2022/03/03 02:57:54;;;;;;;46.67;16.90;;;1.80;99.90;;;;;;5006369;28;20053;-71
2022/03/03 03:00:23;;;;;;;46.80;15.45;;;1.80;99.90;;;;;;5004952;28;20121;-71
2022/03/03 03:02:49;;;;;;;48.78;15.50;;;1.80;99.90;;;;;;5005492;28;20033;-71
2022/03/03 03:05:14;;;;;;;45.50;15.40;;;1.80;99.90;;;;;;5005816;28;20062;-72
2022/03/03 03:07:40;;;;;;;45.95;15.93;;;1.80;99.90;;;;;;5005228;28;20050;-71
2022/03/03 03:10:06;;;;;;;52.30;15.35;;;1.80;99.90;;;;;;5005844;28;20034;-73
2022/03/03 03:12:33;;;;;;;51.03;15.82;;;1.80;99.90;;;;;;5006010;28;20101;-73
2022/03/03 03:14:59;;;;;;;41.20;14.05;;;1.70;99.90;;;;;;5005749;28;20035;-71
2022/03/03 03:17:25;;;;;;;51.97;16.48;;;1.70;99.90;;;;;;5005895;28;20475;-71
2022/03/03 03:19:51;;;;;;;49.50;16.15;;;1.70;99.90;;;;;;5005549;28;20053;-72
2022/03/03 03:22:16;;;;;;;53.78;15.32;;;1.70;99.90;;;;;;4987972;28;20066;-72
2022/03/03 03:24:51;;;;;;;44.53;14.90;;;1.70;99.90;;;;;;5005690;28;20026;-71
2022/03/03 03:27:16;;;;;;;49.10;15.50;;;1.70;99.90;;;;;;5005423;28;20034;-72
2022/03/03 03:29:42;;;;;;;53.95;17.38;;;1.60;99.90;;;;;;5005250;28;20031;-72
2022/03/03 03:32:07;;;;;;;55.15;15.38;;;1.60;99.90;;;;;;5005552;28;20062;-71
2022/03/03 03:34:33;;;;;;;40.95;14.90;;;1.60;99.90;;;;;;5005122;28;20054;-72
2022/03/03 03:36:59;;;;;;;42.50;14.43;;;1.60;99.90;;;;;;5005511;28;20060;-72
2022/03/03 03:39:24;;;;;;;49.08;15.82;;;1.50;99.90;;;;;;5005691;28;20042;-71
2022/03/03 03:41:50;;;;;;;44.00;15.43;;;1.50;99.90;;;;;;5005023;28;20073;-72
2022/03/03 03:44:15;;;;;;;52.42;17.27;;;1.50;99.90;;;;;;4987034;28;20398;-73
2022/03/03 03:46:41;;;;;;;52.78;18.13;;;1.50;99.90;;;;;;5005114;28;20027;-71
2022/03/03 03:49:06;;;;;;;51.97;15.90;;;1.50;99.90;;;;;;5004260;28;20038;-73
2022/03/03 03:51:33;;;;;;;47.22;16.77;;;1.40;99.90;;;;;;5004529;28;20038;-73
2022/03/03 03:53:59;;;;;;;45.40;16.67;;;1.40;99.90;;;;;;5004724;28;20026;-73
2022/03/03 03:56:25;;;;;;;47.53;16.70;;;1.40;99.90;;;;;;5005065;28;20041;-72
2022/03/03 03:58:50;;;;;;;59.55;17.30;;;1.40;99.90;;;;;;5005014;28;20046;-72
2022/03/03 04:01:16;;;;;;;60.83;18.85;;;1.30;99.90;;;;;;5005095;28;20030;-71
2022/03/03 04:03:42;;;;;;;60.22;16.80;;;1.30;99.90;;;;;;5004972;28;20038;-71
2022/03/03 04:06:08;;;;;;;41.40;16.20;;;1.30;99.90;;;;;;5004851;28;20054;-73
2022/03/03 04:08:34;;;;;;;51.20;18.48;;;1.30;99.90;;;;;;5004638;28;20109;-72
2022/03/03 04:11:02;;;;;;;51.78;17.45;;;1.30;99.90;;;;;;5005032;28;20026;-73
2022/03/03 04:13:28;;;;;;;59.95;16.98;;;1.30;99.90;;;;;;4987657;28;20031;-71
2022/03/03 04:15:53;;;;;;;58.75;16.63;;;1.30;99.90;;;;;;5004941;28;20490;-73
2022/03/03 04:18:19;;;;;;;52.58;16.40;;;1.30;99.90;;;;;;5004593;28;20022;-72
2022/03/03 04:20:45;;;;;;;43.25;16.50;;;1.20;99.90;;;;;;5004909;28;20077;-70
2022/03/03 04:23:11;;;;;;;53.90;15.90;;;1.20;99.90;;;;;;4987434;28;20039;-71
2022/03/03 04:25:37;;;;;;;46.80;15.93;;;1.20;99.90;;;;;;5004436;28;20045;-72
2022/03/03 04:28:03;;;;;;;54.72;15.88;;;1.20;99.90;;;;;;4987610;28;20022;-72
2022/03/03 04:30:31;;;;;;;46.65;16.65;;;1.20;99.90;;;;;;5005073;28;20026;-72
2022/03/03 04:32:57;;;;;;;51.92;15.65;;;1.20;99.90;;;;;;5004747;28;20037;-72
2022/03/03 04:35:22;;;;;;;43.95;15.88;;;1.10;99.90;;;;;;5004898;28;20026;-71
2022/03/03 04:37:48;;;;;;;39.58;15.00;;;1.10;99.90;;;;;;5004364;28;20040;-71
2022/03/03 04:40:14;;;;;;;46.28;15.70;;;1.00;99.90;;;;;;5004430;28;20030;-71
2022/03/03 04:42:40;;;;;;;69.18;19.05;;;1.00;99.90;;;;;;4987236;28;20028;-71
2022/03/03 04:45:06;;;;;;;52.75;18.95;;;1.00;99.90;;;;;;5004486;28;20041;-71
2022/03/03 04:47:32;;;;;;;49.97;17.90;;;1.00;99.90;;;;;;5004776;28;20030;-72
2022/03/03 04:49:58;;;;;;;61.40;19.73;;;0.90;99.90;;;;;;5004909;28;20166;-71
2022/03/03 04:52:23;;;;;;;48.38;17.30;;;0.90;99.90;;;;;;5004335;28;20475;-71
2022/03/03 04:54:49;;;;;;;45.10;14.77;;;0.90;99.90;;;;;;5004710;28;20034;-72
2022/03/03 04:57:15;;;;;;;54.53;18.42;;;0.90;99.90;;;;;;5007567;28;20026;-73
2022/03/03 04:59:41;;;;;;;49.47;14.80;;;0.90;99.90;;;;;;5007934;28;20074;-73
2022/03/03 05:02:06;;;;;;;46.88;16.08;;;0.90;99.90;;;;;;4990808;28;20382;-72
2022/03/03 05:04:33;;;;;;;51.05;17.17;;;0.80;99.90;;;;;;5008372;28;20023;-72
2022/03/03 05:06:58;;;;;;;44.40;15.57;;;0.80;99.90;;;;;;5007915;28;20516;-72
2022/03/03 05:09:24;;;;;;;63.88;16.92;;;0.80;99.90;;;;;;5008198;28;20042;-70
2022/03/03 05:11:49;;;;;;;51.20;17.20;;;0.90;99.90;;;;;;5007938;28;20058;-71
2022/03/03 05:14:15;;;;;;;51.58;16.00;;;0.90;99.90;;;;;;5007793;28;20057;-71
2022/03/03 05:16:40;;;;;;;52.55;17.02;;;0.90;99.90;;;;;;5008111;28;20022;-72
2022/03/03 05:19:07;;;;;;;61.08;17.38;;;0.90;99.90;;;;;;5007900;28;20042;-72
2022/03/03 05:21:33;;;;;;;47.28;14.75;;;0.90;99.90;;;;;;5007652;28;20039;-71
2022/03/03 05:24:00;;;;;;;65.13;16.45;;;0.80;99.90;;;;;;5008236;28;20054;-71
2022/03/03 05:26:26;;;;;;;48.83;16.17;;;0.80;99.90;;;;;;5007769;28;20042;-71
2022/03/03 05:28:51;;;;;;;50.38;16.63;;;0.90;99.90;;;;;;5007620;28;20141;-71
2022/03/03 05:31:17;;;;;;;45.97;14.23;;;0.80;99.90;;;;;;4990258;28;20030;-71
2022/03/03 05:33:43;;;;;;;45.05;16.00;;;0.80;99.90;;;;;;5007437;28;20041;-70
2022/03/03 05:36:10;;;;;;;39.47;15.60;;;0.80;99.90;;;;;;5006854;28;20094;-71
2022/03/03 05:38:37;;;;;;;47.13;15.95;;;0.80;99.90;;;;;;5007344;28;20077;-70
2022/03/03 05:41:05;;;;;;;49.58;16.42;;;0.80;99.90;;;;;;5007258;28;20042;-73
2022/03/03 05:43:31;;;;;;;48.28;16.83;;;0.70;99.90;;;;;;5007766;28;20026;-73
2022/03/03 05:45:57;;;;;;;39.38;13.95;;;0.70;99.90;;;;;;5006986;28;20475;-73
2022/03/03 05:48:25;;;;;;;53.75;16.13;;;0.70;99.90;;;;;;5007196;28;20111;-73
2022/03/03 05:50:51;;;;;;;41.08;14.52;;;0.70;99.90;;;;;;4989244;28;20034;-74
2022/03/03 05:53:17;;;;;;;37.63;14.85;;;0.60;99.90;;;;;;5006913;28;20030;-73
2022/03/03 05:55:55;;;;;;;51.95;17.05;;;0.60;99.90;;;;;;5007282;28;20048;-72
2022/03/03 05:58:23;;;;;;;40.33;14.45;;;0.60;99.90;;;;;;5007448;28;20113;-71
2022/03/03 06:00:57;;;;;;;40.47;14.63;;;0.60;99.90;;;;;;5006102;28;20042;-71
2022/03/03 06:03:28;;;;;;;44.38;15.68;;;0.50;99.90;;;;;;5007050;28;20026;-72
2022/03/03 06:06:05;;;;;;;41.75;13.40;;;0.50;99.90;;;;;;5004713;28;20035;-72
2022/03/03 06:08:42;;;;;;;56.67;17.65;;;0.50;99.90;;;;;;5005916;28;20104;-71
2022/03/03 06:11:13;;;;;;;50.08;16.42;;;0.50;99.90;;;;;;5005316;28;20062;-72
2022/03/03 06:13:52;;;;;;;67.00;16.83;;;0.50;99.90;;;;;;5006192;28;20479;-72
2022/03/03 06:16:21;;;;;;;46.95;15.38;;;0.50;99.90;;;;;;5006485;28;20173;-73
2022/03/03 06:18:48;;;;;;;44.78;15.02;;;0.50;99.90;;;;;;4999881;28;20499;-71
2022/03/03 06:21:16;;;;;;;42.10;15.52;;;0.50;99.90;;;;;;4989256;28;20050;-72
2022/03/03 06:23:41;;;;;;;45.65;15.25;;;0.50;99.90;;;;;;5006390;28;20041;-71
2022/03/03 06:26:11;;;;;;;48.90;14.88;;;0.50;99.90;;;;;;5006925;28;20054;-73
2022/03/03 06:28:37;;;;;;;48.03;15.10;;;0.40;99.90;;;;;;5006652;28;20137;-72
2022/03/03 06:31:06;;;;;;;38.20;14.43;;;0.30;99.90;;;;;;4987763;28;20037;-72
2022/03/03 06:33:33;;;;;;;44.45;16.13;;;0.40;99.90;;;;;;4989152;28;20030;-72
2022/03/03 06:35:59;;;;;;;49.08;16.10;;;0.40;99.90;;;;;;5005993;28;20058;-72
2022/03/03 06:38:26;;;;;;;51.28;15.15;;;0.40;99.90;;;;;;5005842;28;20030;-71
2022/03/03 06:40:54;;;;;;;52.92;15.30;;;0.50;99.90;;;;;;5006116;28;20097;-71
2022/03/03 06:43:19;;;;;;;38.00;13.65;;;0.40;99.90;;;;;;5005549;28;20038;-71
2022/03/03 06:45:45;;;;;;;52.00;16.45;;;0.50;99.90;;;;;;5005067;28;20042;-70
2022/03/03 06:48:11;;;;;;;62.42;16.10;;;0.50;99.90;;;;;;5003195;28;20041;-70
2022/03/03 06:50:38;;;;;;;65.05;17.42;;;0.50;99.90;;;;;;5002439;28;20050;-71
2022/03/03 06:53:07;;;;;;;46.42;15.23;;;0.50;99.90;;;;;;4999409;28;20026;-71
2022/03/03 06:55:34;;;;;;;62.05;15.75;;;0.40;99.90;;;;;;5006008;28;20030;-70
2022/03/03 06:58:00;;;;;;;46.38;16.05;;;0.40;99.90;;;;;;4995845;28;20562;-70
2022/03/03 07:00:33;;;;;;;48.40;15.90;;;0.50;99.90;;;;;;4999276;28;20057;-71
2022/03/03 07:03:02;;;;;;;44.85;15.75;;;0.50;99.90;;;;;;4988830;28;20115;-71
2022/03/03 07:05:30;;;;;;;39.97;14.80;;;0.50;99.90;;;;;;5005761;28;20121;-71
2022/03/03 07:07:57;;;;;;;47.55;14.88;;;0.50;99.90;;;;;;5005551;28;20384;-70
2022/03/03 07:10:24;;;;;;;50.83;14.93;;;0.50;99.90;;;;;;5005886;28;20090;-71
2022/03/03 07:12:54;;;;;;;55.88;15.25;;;0.50;99.90;;;;;;5005042;28;20041;-71
2022/03/03 07:15:24;;;;;;;39.15;14.05;;;0.60;99.90;;;;;;5002875;28;21265;-70
2022/03/03 07:18:15;;;;;;;62.20;14.82;;;0.60;99.90;;;;;;5001132;28;20085;-70
2022/03/03 07:20:59;;;;;;;40.20;13.73;;;0.60;99.90;;;;;;5000437;28;20048;-71
2022/03/03 07:23:36;;;;;;;;;;;0.60;99.90;;;;;;4996206;28;20027;-70
2022/03/03 07:26:03;;;;;;;69.70;14.70;;;0.60;99.90;;;;;;5004433;28;19918;-72
2022/03/03 07:28:30;;;;;;;36.05;13.98;;;0.60;99.90;;;;;;4986029;28;20069;-70
2022/03/03 07:31:00;;;;;;;48.33;14.98;;;0.70;99.90;;;;;;5003957;28;20094;-71
2022/03/03 07:34:07;;;;;;;43.17;14.15;;;0.70;99.90;;;;;;5004528;28;20090;-71
2022/03/03 07:36:39;;;;;;;49.63;15.48;;;0.80;99.90;;;;;;4986189;28;20042;-71
2022/03/03 07:39:08;;;;;;;47.33;14.02;;;0.90;99.90;;;;;;5004341;28;20094;-71
2022/03/03 07:41:34;;;;;;;40.35;14.48;;;0.90;99.90;;;;;;5005257;28;20086;-73
2022/03/03 07:44:00;;;;;;;38.75;13.77;;;0.90;99.90;;;;;;5005538;28;20027;-72
2022/03/03 07:46:27;;;;;;;39.22;13.73;;;0.90;99.90;;;;;;5005099;28;20031;-71
2022/03/03 07:48:53;;;;;;;46.95;15.63;;;1.00;99.90;;;;;;5005369;28;20030;-71
2022/03/03 07:51:20;;;;;;;32.83;12.60;;;1.10;99.90;;;;;;5004434;28;20072;-70
2022/03/03 07:53:47;;;;;;;40.35;13.15;;;1.10;99.90;;;;;;5004895;28;20022;-71
2022/03/03 07:56:20;;;;;;;33.42;13.32;;;1.20;99.90;;;;;;5004678;28;20455;-72
2022/03/03 07:58:50;;;;;;;33.33;12.80;;;1.30;99.90;;;;;;5004020;28;20998;-70
2022/03/03 08:01:17;;;;;;;35.35;12.45;;;1.20;99.90;;;;;;5003991;28;20026;-71
2022/03/03 08:03:45;;;;;;;41.67;15.25;;;1.30;99.90;;;;;;5004742;28;20086;-71
2022/03/03 08:06:13;;;;;;;36.63;13.80;;;1.30;99.90;;;;;;5003516;28;20054;-71
2022/03/03 08:08:39;;;;;;;33.60;12.93;;;1.30;99.90;;;;;;5004606;28;20487;-70
2022/03/03 08:11:07;;;;;;;45.58;14.80;;;1.30;99.90;;;;;;5005011;28;20077;-72
2022/03/03 08:13:34;;;;;;;39.20;14.68;;;1.30;99.90;;;;;;4987265;28;20057;-71
2022/03/03 08:16:00;;;;;;;55.25;13.40;;;1.40;99.90;;;;;;5005166;28;20093;-72
2022/03/03 08:18:32;;;;;;;45.42;14.02;;;1.50;99.90;;;;;;5005168;28;20069;-71
2022/03/03 08:21:01;;;;;;;30.88;11.98;;;1.50;99.90;;;;;;5004728;28;20046;-70
2022/03/03 08:23:27;;;;;;;36.88;11.88;;;1.50;99.90;;;;;;5005125;28;20019;-71
2022/03/03 08:25:55;;;;;;;42.58;13.43;;;1.40;99.90;;;;;;5003829;28;20030;-71
2022/03/03 08:28:25;;;;;;;35.58;12.52;;;1.40;99.90;;;;;;5004378;28;20037;-71
2022/03/03 08:31:02;;;;;;;29.75;11.52;;;1.40;99.90;;;;;;5005579;28;20041;-72
2022/03/03 08:33:52;;;;;;;31.92;12.43;;;1.40;99.90;;;;;;5007887;28;20061;-71
2022/03/03 08:36:29;;;;;;;30.13;12.15;;;1.30;99.90;;;;;;4998704;28;20046;-71
2022/03/03 08:39:02;;;;;;;35.88;11.30;;;1.40;99.90;;;;;;5008070;28;20041;-71
2022/03/03 08:41:32;;;;;;;36.75;13.23;;;1.40;99.90;;;;;;4987556;28;20033;-71
2022/03/03 08:44:02;;;;;;;30.48;11.90;;;1.50;99.90;;;;;;5001478;28;20028;-71
2022/03/03 08:46:32;;;;;;;32.70;11.77;;;1.60;99.90;;;;;;5006367;28;20061;-71
2022/03/03 08:49:06;;;;;;;33.03;11.10;;;1.80;99.90;;;;;;4999362;28;20740;-71
2022/03/03 08:51:32;;;;;;;35.80;12.52;;;1.90;99.90;;;;;;5004668;28;20054;-71
2022/03/03 08:54:00;;;;;;;36.67;12.30;;;2.00;99.90;;;;;;5004500;28;20031;-71
2022/03/03 08:56:25;;;;;;;33.20;11.93;;;2.00;99.90;;;;;;4999701;28;20048;-72
2022/03/03 08:58:53;;;;;;;34.80;13.55;;;2.10;99.90;;;;;;4994485;28;20108;-71
2022/03/03 09:01:20;;;;;;;39.60;12.27;;;2.30;99.90;;;;;;4999916;28;20493;-71
2022/03/03 09:03:46;;;;;;;26.05;10.43;;;2.40;99.90;;;;;;5004196;28;20035;-70
2022/03/03 09:06:16;;;;;;;29.20;12.63;;;2.40;99.90;;;;;;4990235;28;20085;-71
2022/03/03 09:08:42;;;;;;;31.58;11.23;;;2.50;99.90;;;;;;5004107;28;20062;-72
2022/03/03 09:11:08;;;;;;;29.45;12.60;;;2.60;99.90;;;;;;5006850;28;20033;-73
2022/03/03 09:13:34;;;;;;;29.35;11.02;;;2.80;99.90;;;;;;5008151;28;20037;-71
2022/03/03 09:16:00;;;;;;;32.42;11.88;;;3.10;99.90;;;;;;4990652;28;20023;-71
2022/03/03 09:18:27;;;;;;;27.70;11.38;;;3.20;99.90;;;;;;4989162;28;20027;-72
2022/03/03 09:20:53;;;;;;;34.80;12.07;;;3.30;99.90;;;;;;5005219;28;20040;-73
2022/03/03 09:23:20;;;;;;;33.15;12.68;;;3.30;99.90;;;;;;5002483;28;20466;-72
2022/03/03 09:25:45;;;;;;;30.45;11.70;;;3.30;99.90;;;;;;4988108;28;20034;-72
2022/03/03 09:28:11;;;;;;;30.23;11.38;;;3.20;99.90;;;;;;4989447;28;20033;-71
2022/03/03 09:30:38;;;;;;;32.90;12.27;;;3.30;99.90;;;;;;5007758;28;20045;-73
2022/03/03 09:33:06;;;;;;;36.35;12.68;;;3.60;99.90;;;;;;5007163;28;20023;-73
2022/03/03 09:35:34;;;;;;;32.60;10.77;;;3.80;99.90;;;;;;5007888;28;20026;-72
2022/03/03 09:37:59;;;;;;;35.38;12.35;;;4.10;99.90;;;;;;5007829;28;20026;-72
2022/03/03 09:40:25;;;;;;;35.83;12.90;;;4.40;99.90;;;;;;5006951;28;20038;-73
2022/03/03 09:43:00;;;;;;;30.83;11.45;;;4.80;99.90;;;;;;5006477;28;20073;-71
2022/03/03 09:45:26;;;;;;;25.92;10.65;;;5.10;99.90;;;;;;5007825;28;20035;-71
2022/03/03 09:47:55;;;;;;;31.98;11.25;;;5.40;99.90;;;;;;5007214;28;20023;-72
2022/03/03 09:50:22;;;;;;;41.60;14.55;;;5.50;99.90;;;;;;4989825;28;20023;-72
2022/03/03 09:52:49;;;;;;;30.85;13.48;;;5.60;99.90;;;;;;5007225;28;20022;-73
2022/03/03 09:55:17;;;;;;;33.05;13.43;;;5.70;99.90;;;;;;5000366;28;20042;-72
2022/03/03 09:57:43;;;;;;;30.65;12.10;;;5.60;99.90;;;;;;4998532;28;20027;-72
2022/03/03 10:00:11;;;;;;;28.48;12.32;;;5.60;99.90;;;;;;5007102;28;20065;-72
2022/03/03 10:02:59;;;;;;;26.75;11.48;;;5.50;99.90;;;;;;5006871;28;20022;-72
2022/03/03 10:05:56;;;;;;;30.05;12.38;;;5.40;99.90;;;;;;4987648;28;20027;-71
2022/03/03 10:08:23;;;;;;;31.95;12.27;;;5.60;99.90;;;;;;4978828;28;20043;-71
2022/03/03 10:10:54;;;;;;;35.70;12.98;;;5.80;99.90;;;;;;4987133;28;20055;-72
2022/03/03 10:13:20;;;;;;;41.88;15.02;;;6.00;99.90;;;;;;4987301;28;20046;-73
2022/03/03 10:15:53;;;;;;;34.08;14.07;;;6.20;99.90;;;;;;5006372;28;20034;-72
2022/03/03 10:18:19;;;;;;;31.05;11.82;;;6.50;99.90;;;;;;5006996;28;20034;-72
2022/03/03 10:20:49;;;;;;;31.63;13.95;;;6.70;99.90;;;;;;5004159;28;20541;-72
2022/03/03 10:23:16;;;;;;;37.38;13.25;;;6.90;99.90;;;;;;5006308;28;20109;-72
2022/03/03 10:25:46;;;;;;;31.20;12.30;;;7.20;99.90;;;;;;4989070;28;20109;-73
2022/03/03 10:28:26;;;;;;;30.45;11.65;;;7.30;99.90;;;;;;4986620;28;20051;-72
2022/03/03 10:31:01;;;;;;;29.52;12.20;;;7.60;99.90;;;;;;4999678;28;20039;-72
2022/03/03 10:33:34;;;;;;;34.28;13.13;;;7.90;99.90;;;;;;4998198;28;20041;-72
2022/03/03 10:36:12;;;;;;;29.05;11.50;;;8.00;99.90;;;;;;5006306;28;20034;-73
2022/03/03 10:38:45;;;;;;;34.30;12.77;;;8.10;99.90;;;;;;5005785;28;20026;-73
2022/03/03 10:41:36;;;;;;;27.55;12.07;;;8.30;99.90;;;;;;5005703;28;20038;-73
2022/03/03 10:44:11;;;;;;;33.55;12.00;;;8.50;99.90;;;;;;4988256;28;20387;-75
2022/03/03 10:46:38;;;;;;;;;;;8.60;99.90;;;;;;4999643;28;20038;-74
2022/03/03 10:49:24;;;;;;;25.75;10.35;;;8.60;99.90;;;;;;5000092;28;19906;-73
2022/03/03 10:51:49;;;;;;;26.95;8.48;;;8.80;99.90;;;;;;4989634;28;20062;-72
2022/03/03 10:54:16;;;;;;;28.27;8.63;;;9.00;99.90;;;;;;5004156;28;20494;-73
2022/03/03 10:56:47;;;;;;;21.75;9.02;;;9.30;99.90;;;;;;5004405;28;20026;-72
2022/03/03 10:59:24;;;;;;;23.77;8.63;;;9.60;99.90;;;;;;5003721;28;20055;-73
2022/03/03 11:01:51;;;;;;;22.02;8.30;;;9.80;99.90;;;;;;4995412;28;20121;-74
2022/03/03 11:04:23;;;;;;;17.30;7.07;;;9.90;99.90;;;;;;5000340;28;20026;-73
2022/03/03 11:06:49;;;;;;;19.40;7.05;;;10.10;99.90;;;;;;4999550;28;20045;-72
2022/03/03 11:09:19;;;;;;;20.75;7.63;;;10.30;99.90;;;;;;5004427;28;20041;-73
2022/03/03 11:11:48;;;;;;;21.48;8.77;;;10.50;99.90;;;;;;5005123;28;20034;-72
2022/03/03 11:14:13;;;;;;;19.80;8.10;;;10.70;99.90;;;;;;5005316;28;20026;-72
2022/03/03 11:16:41;;;;;;;21.40;7.10;;;11.00;99.90;;;;;;5004722;28;20027;-73
2022/03/03 11:19:09;;;;;;;17.15;7.65;;;11.10;99.90;;;;;;4998141;28;20045;-72
2022/03/03 11:21:35;;;;;;;18.33;7.18;;;11.40;99.90;;;;;;4985764;28;20031;-72
2022/03/03 11:24:02;;;;;;;13.00;6.05;;;11.70;99.90;;;;;;4990117;28;20033;-74
2022/03/03 11:26:33;;;;;;;13.05;6.28;;;11.90;99.90;;;;;;4986641;28;20368;-72
2022/03/03 11:29:10;;;;;;;12.00;5.75;;;12.20;99.90;;;;;;5005509;28;20069;-73
2022/03/03 11:31:37;;;;;;;22.35;7.45;;;12.40;99.90;;;;;;5004644;28;20031;-73
2022/03/03 11:34:41;;;;;;;15.32;6.85;;;12.70;99.90;;;;;;5005290;28;20034;-72
2022/03/03 11:37:09;;;;;;;16.27;6.63;;;12.90;99.90;;;;;;5003731;28;20514;-73
2022/03/03 11:39:45;;;;;;;15.05;6.63;;;13.00;99.90;;;;;;5004215;28;20089;-73
2022/03/03 11:42:35;;;;;;;16.95;7.22;;;13.20;99.90;;;;;;4993761;28;20041;-72
2022/03/03 11:45:12;;;;;;;12.15;6.18;;;13.50;99.90;;;;;;5005101;28;20041;-72
2022/03/03 11:47:47;;;;;;;15.60;6.05;;;13.80;99.90;;;;;;5005302;28;20038;-72
2022/03/03 11:50:19;;;;;;;14.75;7.05;;;14.00;99.90;;;;;;5004218;28;20018;-72
2022/03/03 11:52:52;;;;;;;17.23;7.13;;;14.00;99.90;;;;;;4987002;28;20061;-72
2022/03/03 11:55:29;;;;;;;12.57;6.20;;;14.10;99.90;;;;;;4987868;28;20478;-72
2022/03/03 11:58:10;;;;;;;11.20;5.53;;;14.20;99.90;;;;;;5004941;28;20090;-72
2022/03/03 12:01:05;;;;;;;19.85;6.90;;;14.30;99.90;;;;;;5004208;28;20043;-73
2022/03/03 12:04:01;;;;;;;15.40;6.47;;;14.50;99.90;;;;;;5004451;28;20364;-74
2022/03/03 12:06:40;;;;;;;18.23;6.72;;;14.60;99.90;;;;;;5004203;28;20038;-73
2022/03/03 12:09:17;;;;;;;14.48;6.55;;;14.80;99.90;;;;;;5004938;28;20046;-73
2022/03/03 12:11:42;;;;;;;16.17;6.47;;;15.00;99.90;;;;;;4996036;28;20030;-72
2022/03/03 12:14:33;;;;;;;16.10;6.57;;;15.10;99.90;;;;;;4984894;28;20110;-74
2022/03/03 12:17:38;;;;;;;17.15;6.50;;;15.30;99.90;;;;;;4987837;28;20026;-74
2022/03/03 12:20:33;;;;;;;13.07;5.25;;;15.10;99.90;;;;;;4986139;28;20046;-72
2022/03/03 12:23:23;;;;;;;18.98;6.20;;;15.10;99.90;;;;;;5004663;28;20038;-74
2022/03/03 12:25:59;;;;;;;13.88;6.00;;;15.20;99.90;;;;;;4984690;28;20043;-72
2022/03/03 12:28:47;;;;;;;17.48;6.65;;;15.30;99.90;;;;;;4986274;28;20487;-72
2022/03/03 12:31:18;;;;;;;16.35;6.00;;;15.30;99.90;;;;;;5002926;28;20046;-72
2022/03/03 12:33:55;;;;;;;13.98;6.32;;;15.30;99.90;;;;;;5003959;28;20046;-72
2022/03/03 12:36:21;;;;;;;20.90;8.18;;;15.70;99.90;;;;;;5004423;28;20022;-73
2022/03/03 12:38:49;;;;;;;24.02;7.90;;;16.20;99.90;;;;;;4992209;28;20034;-73
2022/03/03 12:41:14;;;;;;;19.25;6.97;;;16.40;99.90;;;;;;4996647;28;20049;-72
2022/03/03 12:43:41;;;;;;;22.50;8.15;;;16.40;99.90;;;;;;5004725;28;20034;-72
2022/03/03 12:46:08;;;;;;;20.98;8.27;;;16.50;99.90;;;;;;4998961;28;20038;-72
2022/03/03 12:48:34;;;;;;;18.98;7.68;;;16.60;99.90;;;;;;4983402;28;20074;-73